createdAt,value
2019-03-29T00:05:51.956Z,747.33
2019-03-29T00:15:57.667Z,893.00
2019-03-29T00:26:03.199Z,772.57
2019-03-29T00:36:09.841Z,726.00
2019-03-29T00:46:16.022Z,866.60
2019-03-29T00:56:21.595Z,1202.17
2019-03-29T01:06:27.260Z,845.73
2019-03-29T01:16:32.851Z,772.87
2019-03-29T01:26:38.516Z,767.93
2019-03-29T01:36:44.277Z,859.70
2019-03-29T01:46:50.842Z,678.40
2019-03-29T01:56:56.649Z,907.73
2019-03-29T02:07:02.233Z,770.87
2019-03-29T02:17:07.905Z,777.60
2019-03-29T02:27:13.603Z,713.70
2019-03-29T02:37:19.267Z,823.17
2019-03-29T02:47:24.967Z,568.30
2019-03-29T02:57:30.748Z,676.63
2019-03-29T03:07:36.304Z,604.67
2019-03-29T03:17:41.893Z,621.67
2019-03-29T03:27:47.527Z,591.67
2019-03-29T03:37:53.283Z,594.43
2019-03-29T03:47:59.003Z,467.13
2019-03-29T03:58:05.347Z,513.47
2019-03-29T04:08:11.050Z,493.37
2019-03-29T04:18:16.916Z,694.67
2019-03-29T04:28:22.647Z,904.37
2019-03-29T04:38:28.327Z,483.73
2019-03-29T04:48:34.013Z,415.07
2019-03-29T04:58:39.687Z,526.53
2019-03-29T05:08:45.360Z,355.37
2019-03-29T05:18:51.048Z,452.37
2019-03-29T05:28:56.984Z,462.17
2019-03-29T05:39:02.656Z,646.10
2019-03-29T05:49:09.349Z,403.37
2019-03-29T05:59:15.884Z,401.03
2019-03-29T06:09:21.637Z,607.57
2019-03-29T06:19:27.283Z,456.40
2019-03-29T06:29:37.321Z,437.30
2019-03-29T06:39:43.445Z,461.63
2019-03-29T06:49:49.045Z,347.30
2019-03-29T06:59:54.575Z,267.77
2019-03-29T07:09:59.696Z,256.67
2019-03-29T07:20:07.283Z,232.60
2019-03-29T07:30:13.860Z,234.70
2019-03-29T07:40:19.481Z,208.33
2019-03-29T07:50:24.998Z,227.33
2019-03-29T08:00:31.503Z,206.33
2019-03-29T08:10:37.140Z,145.37
2019-03-29T08:20:44.534Z,136.53
2019-03-29T08:30:49.783Z,179.00
2019-03-29T08:40:55.310Z,175.30
2019-03-29T08:51:05.633Z,162.30
2019-03-29T09:01:11.228Z,143.43
2019-03-29T09:11:16.829Z,84.83
2019-03-29T09:21:22.449Z,62.57
2019-03-29T09:31:28.107Z,42.03
2019-03-29T09:41:33.826Z,30.50
2019-03-29T09:51:39.663Z,41.73
2019-03-29T10:01:45.473Z,38.90
2019-03-29T10:11:51.115Z,36.07
2019-03-29T10:21:56.663Z,33.33
2019-03-29T10:32:05.496Z,32.17
2019-03-29T10:42:09.549Z,29.63
2019-03-29T10:52:15.117Z,45.87
2019-03-29T11:02:23.597Z,43.73
2019-03-29T11:12:29.288Z,34.10
2019-03-29T11:22:34.939Z,27.57
2019-03-29T11:32:40.598Z,23.50
2019-03-29T11:42:46.328Z,18.10
2019-03-29T11:52:51.999Z,20.87
2019-03-29T12:02:57.605Z,16.90
2019-03-29T12:13:18.971Z,14.30
2019-03-29T12:34:23.258Z,14.37
2019-03-29T12:44:28.957Z,19.63
2019-03-29T12:54:34.678Z,12.77
2019-03-29T13:04:41.243Z,13.43
2019-03-29T13:14:46.835Z,23.90
2019-03-29T13:24:52.444Z,17.30
2019-03-29T13:34:58.079Z,15.83
2019-03-29T13:45:03.687Z,28.47
2019-03-29T13:55:10.362Z,13.30
2019-03-29T14:05:16.117Z,16.73
2019-03-29T14:15:28.240Z,17.60
2019-03-29T14:25:33.844Z,19.13
2019-03-29T14:35:39.691Z,15.47
2019-03-29T14:45:45.312Z,19.37
2019-03-29T14:55:51.038Z,21.47
2019-03-29T15:06:15.438Z,20.33
2019-03-29T15:16:22.312Z,27.37
2019-03-29T15:26:28.019Z,33.20
2019-03-29T15:36:33.586Z,27.23
2019-03-29T15:46:39.721Z,28.63
2019-03-29T15:56:45.521Z,37.77
2019-03-29T16:06:51.078Z,32.90
2019-03-29T16:16:56.704Z,51.87
2019-03-29T16:27:02.229Z,28.73
2019-03-29T16:37:09.533Z,63.00
2019-03-29T16:47:15.346Z,45.53
2019-03-29T16:57:20.854Z,49.33
2019-03-29T17:07:26.517Z,94.57
2019-03-29T17:17:32.238Z,110.53
2019-03-29T17:27:37.865Z,56.70
2019-03-29T17:37:43.766Z,68.67
2019-03-29T17:47:49.837Z,109.57
2019-03-29T18:08:28.091Z,117.07
2019-03-29T18:18:34.115Z,136.27
2019-03-29T18:28:40.159Z,155.20
2019-03-29T18:38:47.691Z,179.57
2019-03-29T18:48:53.718Z,268.77
2019-03-29T18:58:59.641Z,383.67
2019-03-29T19:09:37.443Z,562.70
2019-03-29T19:30:34.777Z,630.47
2019-03-29T19:40:40.957Z,742.93
2019-03-29T19:50:47.274Z,749.10
2019-03-29T20:01:00.405Z,664.03
2019-03-29T20:11:02.971Z,642.07
2019-03-29T20:21:20.864Z,586.90
2019-03-29T20:31:30.850Z,580.77
2019-03-29T20:41:37.104Z,522.57
2019-03-29T20:51:43.038Z,495.77
2019-03-29T21:01:52.732Z,540.73
2019-03-29T21:11:57.771Z,560.83
2019-03-29T21:22:03.761Z,578.77
2019-03-29T21:32:12.265Z,595.57
2019-03-29T21:42:19.861Z,688.57
2019-03-29T21:52:26.542Z,605.47
2019-03-29T22:02:33.078Z,590.53
2019-03-29T22:12:39.077Z,627.40
2019-03-29T22:22:46.250Z,585.40
2019-03-29T22:32:51.878Z,624.77
2019-03-29T22:42:57.530Z,620.53
2019-03-29T22:53:03.184Z,588.60
2019-03-29T23:03:09.013Z,678.97
2019-03-29T23:13:14.631Z,692.70
2019-03-29T23:23:20.173Z,584.57
2019-03-29T23:33:25.906Z,560.93
2019-03-29T23:43:31.633Z,580.37
2019-03-29T23:53:38.525Z,539.13
